createdAt,value
2022-09-15T00:00:50.305Z,19.00
2022-09-15T00:03:52.661Z,19.07
2022-09-15T00:06:54.910Z,19.05
2022-09-15T00:09:57.281Z,19.00
2022-09-15T00:12:59.760Z,18.99
2022-09-15T00:16:02.590Z,19.01
2022-09-15T00:19:04.976Z,18.98
2022-09-15T00:22:07.148Z,18.96
2022-09-15T00:25:10.205Z,19.09
2022-09-15T00:28:14.202Z,19.17
2022-09-15T00:31:20.230Z,19.32
2022-09-15T00:34:22.520Z,19.29
2022-09-15T00:37:24.941Z,19.09
2022-09-15T00:40:27.502Z,19.13
2022-09-15T00:43:50.458Z,19.13
2022-09-15T00:47:17.801Z,19.05
2022-09-15T00:50:19.068Z,18.95
2022-09-15T00:53:21.429Z,18.89
2022-09-15T00:56:23.758Z,18.87
2022-09-15T00:59:27.967Z,18.83
2022-09-15T01:02:33.113Z,18.81
2022-09-15T01:05:40.357Z,18.79
2022-09-15T01:09:03.500Z,18.66
2022-09-15T01:12:06.312Z,18.71
2022-09-15T01:15:08.996Z,18.62
2022-09-15T01:18:31.384Z,18.54
2022-09-15T01:22:02.069Z,18.51
2022-09-15T01:25:27.800Z,18.63
2022-09-15T01:28:46.266Z,18.65
2022-09-15T01:32:16.697Z,18.70
2022-09-15T01:35:27.721Z,18.66
2022-09-15T01:39:03.173Z,18.70
2022-09-15T01:42:07.572Z,18.74
2022-09-15T01:45:14.353Z,18.82
2022-09-15T01:48:22.614Z,18.66
2022-09-15T01:51:25.868Z,18.73
2022-09-15T01:54:35.574Z,18.80
2022-09-15T01:57:37.773Z,18.65
2022-09-15T02:00:45.009Z,18.54
2022-09-15T02:03:56.684Z,18.65
2022-09-15T02:07:06.441Z,18.62
2022-09-15T02:10:13.472Z,18.54
2022-09-15T02:13:32.371Z,18.54
2022-09-15T02:16:35.406Z,18.47
2022-09-15T02:19:41.743Z,18.48
2022-09-15T02:22:48.282Z,18.49
2022-09-15T02:25:54.154Z,18.53
2022-09-15T02:28:58.161Z,18.56
2022-09-15T02:32:06.772Z,18.49
2022-09-15T02:35:10.138Z,18.44
2022-09-15T02:38:12.897Z,18.44
2022-09-15T02:41:15.050Z,18.45
2022-09-15T02:44:17.254Z,18.35
2022-09-15T02:47:19.768Z,18.33
2022-09-15T02:50:21.948Z,18.38
2022-09-15T02:53:24.196Z,18.35
2022-09-15T02:56:26.499Z,18.26
2022-09-15T02:59:48.616Z,18.24
2022-09-15T03:02:52.362Z,18.25
2022-09-15T03:05:54.666Z,18.34
2022-09-15T03:09:01.255Z,18.18
2022-09-15T03:12:03.772Z,18.31
2022-09-15T03:15:07.971Z,18.32
2022-09-15T03:18:10.149Z,18.20
2022-09-15T03:21:13.781Z,18.13
2022-09-15T03:24:16.193Z,18.07
2022-09-15T03:27:18.352Z,18.16
2022-09-15T03:30:20.629Z,18.17
2022-09-15T03:33:24.417Z,18.11
2022-09-15T03:36:26.643Z,18.08
2022-09-15T03:39:28.835Z,18.15
2022-09-15T03:42:31.141Z,18.21
2022-09-15T03:45:33.352Z,18.27
2022-09-15T03:48:36.354Z,18.22
2022-09-15T03:51:38.533Z,18.34
2022-09-15T03:54:40.721Z,18.36
2022-09-15T03:57:42.881Z,18.41
2022-09-15T04:00:46.751Z,18.43
2022-09-15T04:03:51.304Z,18.46
2022-09-15T04:06:53.796Z,18.45
2022-09-15T04:09:55.969Z,18.52
2022-09-15T04:12:58.145Z,18.44
2022-09-15T04:16:01.912Z,18.48
2022-09-15T04:19:04.617Z,18.44
2022-09-15T04:22:07.027Z,18.35
2022-09-15T04:25:09.431Z,18.26
2022-09-15T04:28:11.584Z,18.15
2022-09-15T04:31:15.815Z,18.07
2022-09-15T04:34:18.440Z,18.06
2022-09-15T04:37:20.616Z,18.08
2022-09-15T04:40:23.012Z,18.02
2022-09-15T04:43:26.411Z,17.89
2022-09-15T04:46:28.684Z,17.77
2022-09-15T04:49:31.763Z,17.77
2022-09-15T04:52:33.919Z,17.87
2022-09-15T04:55:36.518Z,17.83
2022-09-15T04:58:40.723Z,17.87
2022-09-15T05:01:43.684Z,17.91
2022-09-15T05:04:48.443Z,17.92
2022-09-15T05:07:50.741Z,18.13
2022-09-15T05:10:53.344Z,18.40
2022-09-15T05:13:55.526Z,18.73
2022-09-15T05:16:57.692Z,18.89
2022-09-15T05:20:00.711Z,19.03
2022-09-15T05:23:03.496Z,19.07
2022-09-15T05:26:07.956Z,19.13
2022-09-15T05:29:10.126Z,19.19
2022-09-15T05:32:12.478Z,19.33
2022-09-15T05:35:14.627Z,19.25
2022-09-15T05:38:16.967Z,19.26
2022-09-15T05:41:19.551Z,19.17
2022-09-15T05:44:21.699Z,19.13
2022-09-15T05:47:23.880Z,19.14
2022-09-15T05:50:26.059Z,19.15
2022-09-15T05:53:28.533Z,19.22
2022-09-15T05:56:31.280Z,19.24
2022-09-15T05:59:36.060Z,19.20
2022-09-15T06:02:38.311Z,19.23
2022-09-15T06:05:40.536Z,19.30
2022-09-15T06:08:52.803Z,19.39
2022-09-15T06:11:57.703Z,19.50
2022-09-15T06:14:59.926Z,19.58
2022-09-15T06:18:02.790Z,19.81
2022-09-15T06:21:16.899Z,19.84
2022-09-15T06:24:19.139Z,19.94
2022-09-15T06:27:21.409Z,19.98
2022-09-15T06:30:23.602Z,20.01
2022-09-15T06:33:27.104Z,19.98
2022-09-15T06:36:30.399Z,20.00
2022-09-15T06:39:33.094Z,20.06
2022-09-15T06:42:35.240Z,20.11
2022-09-15T06:45:37.428Z,20.16
2022-09-15T06:48:40.804Z,20.39
2022-09-15T06:51:43.030Z,20.45
2022-09-15T06:54:45.264Z,20.54
2022-09-15T06:57:47.407Z,20.59
2022-09-15T07:00:49.728Z,20.75
2022-09-15T07:03:52.585Z,20.70
2022-09-15T07:06:54.908Z,20.77
2022-09-15T07:09:57.106Z,20.72
2022-09-15T07:13:01.253Z,20.84
2022-09-15T07:16:05.174Z,20.92
2022-09-15T07:19:07.505Z,21.05
2022-09-15T07:22:11.976Z,21.14
2022-09-15T07:25:14.280Z,21.29
2022-09-15T07:28:16.950Z,21.40
2022-09-15T07:31:21.641Z,21.68
2022-09-15T07:34:23.832Z,21.74
2022-09-15T07:37:26.000Z,22.24
2022-09-15T07:40:29.080Z,22.62
2022-09-15T07:43:31.503Z,23.02
2022-09-15T07:46:34.146Z,23.03
2022-09-15T07:49:36.310Z,23.34
2022-09-15T07:52:38.496Z,23.50
2022-09-15T07:55:40.724Z,23.43
2022-09-15T07:58:42.950Z,23.29
2022-09-15T08:01:45.185Z,23.24
2022-09-15T08:04:47.430Z,23.58
2022-09-15T08:07:50.444Z,23.56
2022-09-15T08:10:52.952Z,23.30
2022-09-15T08:13:55.146Z,23.76
2022-09-15T08:17:01.016Z,23.84
2022-09-15T08:20:04.247Z,23.91
2022-09-15T08:23:06.437Z,24.09
2022-09-15T08:26:13.791Z,24.18
2022-09-15T08:29:17.934Z,24.13
2022-09-15T08:32:20.144Z,23.74
2022-09-15T08:35:22.315Z,23.57
2022-09-15T08:38:24.629Z,23.47
2022-09-15T08:41:33.095Z,23.31
2022-09-15T08:45:17.930Z,23.23
2022-09-15T08:48:24.820Z,23.31
2022-09-15T08:51:34.145Z,23.54
2022-09-15T08:54:36.399Z,23.87
2022-09-15T08:57:38.672Z,24.30
2022-09-15T09:00:41.716Z,24.74
2022-09-15T09:03:48.746Z,24.95
2022-09-15T09:06:56.913Z,24.95
2022-09-15T09:10:14.563Z,25.09
2022-09-15T09:13:35.281Z,25.22
2022-09-15T09:17:03.711Z,25.35
2022-09-15T09:20:29.578Z,24.98
2022-09-15T09:23:34.328Z,25.55
2022-09-15T09:26:36.687Z,25.79
2022-09-15T09:29:50.590Z,25.53
2022-09-15T09:33:07.992Z,25.80
2022-09-15T09:36:11.961Z,25.73
2022-09-15T09:39:15.348Z,25.25
2022-09-15T09:42:18.808Z,25.52
2022-09-15T09:45:21.092Z,25.69
2022-09-15T09:48:25.239Z,26.00
2022-09-15T09:51:49.093Z,26.31
2022-09-15T09:55:03.938Z,26.28
2022-09-15T09:58:13.523Z,25.83
2022-09-15T10:01:17.689Z,25.71
2022-09-15T10:04:21.092Z,25.71
2022-09-15T10:07:26.194Z,26.05
2022-09-15T10:10:32.402Z,25.65
2022-09-15T10:13:35.939Z,25.72
2022-09-15T10:16:38.196Z,25.88
2022-09-15T10:19:46.402Z,25.69
2022-09-15T10:22:48.701Z,25.96
2022-09-15T10:26:00.308Z,25.97
2022-09-15T10:29:16.818Z,26.39
2022-09-15T10:32:26.262Z,26.17
2022-09-15T10:35:33.028Z,26.41
2022-09-15T10:38:44.503Z,26.80
2022-09-15T10:42:02.144Z,26.49
2022-09-15T10:45:04.271Z,26.29
2022-09-15T10:48:15.489Z,26.37
2022-09-15T10:51:25.546Z,26.41
2022-09-15T10:55:04.876Z,26.46
2022-09-15T10:58:23.583Z,26.28
2022-09-15T11:01:28.640Z,26.21
2022-09-15T11:04:44.495Z,26.50
2022-09-15T11:07:54.292Z,26.91
2022-09-15T11:11:16.645Z,27.05
2022-09-15T11:14:42.056Z,27.10
2022-09-15T11:18:15.314Z,27.05
2022-09-15T11:21:25.588Z,26.92
2022-09-15T11:24:54.020Z,26.67
2022-09-15T11:28:04.631Z,26.42
2022-09-15T11:31:17.226Z,26.16
2022-09-15T11:34:41.432Z,25.90
2022-09-15T11:37:46.193Z,25.66
2022-09-15T11:40:53.133Z,25.66
2022-09-15T11:44:17.241Z,25.60
2022-09-15T11:47:36.746Z,25.51
2022-09-15T11:50:41.673Z,25.39
2022-09-15T11:54:05.985Z,25.20
2022-09-15T11:57:18.192Z,25.08
2022-09-15T12:00:20.943Z,24.98
2022-09-15T12:03:25.579Z,24.98
2022-09-15T12:07:02.193Z,24.95
2022-09-15T12:10:18.085Z,24.99
2022-09-15T12:13:22.741Z,25.15
2022-09-15T12:16:25.458Z,25.08
2022-09-15T12:19:33.930Z,25.16
2022-09-15T12:23:00.094Z,25.17
2022-09-15T12:26:28.932Z,25.07
2022-09-15T12:29:41.176Z,24.89
2022-09-15T12:32:44.547Z,24.75
2022-09-15T12:35:46.986Z,24.59
2022-09-15T12:38:49.500Z,24.42
2022-09-15T12:42:00.767Z,24.28
2022-09-15T12:45:02.967Z,24.16
2022-09-15T12:48:07.642Z,24.01
2022-09-15T12:51:10.942Z,24.01
2022-09-15T12:54:19.481Z,23.70
2022-09-15T12:57:33.181Z,23.74
2022-09-15T13:00:37.977Z,23.61
2022-09-15T13:03:41.985Z,23.55
2022-09-15T13:07:16.174Z,23.49
2022-09-15T13:10:30.852Z,23.37
2022-09-15T13:13:44.602Z,23.05
2022-09-15T13:16:52.763Z,22.26
2022-09-15T13:19:59.880Z,21.44
2022-09-15T13:23:03.754Z,20.82
2022-09-15T13:26:07.231Z,20.30
2022-09-15T13:29:14.363Z,20.19
2022-09-15T13:32:32.615Z,19.76
2022-09-15T13:35:59.354Z,19.47
2022-09-15T13:39:04.369Z,19.69
2022-09-15T13:42:21.997Z,19.90
2022-09-15T13:45:49.540Z,20.08
2022-09-15T13:49:10.483Z,20.20
2022-09-15T13:52:18.555Z,19.97
2022-09-15T13:55:25.385Z,19.98
2022-09-15T14:01:50.253Z,19.97
2022-09-15T14:04:52.508Z,19.97
2022-09-15T14:08:01.757Z,19.87
2022-09-15T14:11:10.107Z,20.00
2022-09-15T14:14:30.095Z,19.93
2022-09-15T14:17:34.211Z,19.91
2022-09-15T14:20:36.457Z,19.75
2022-09-15T14:23:46.091Z,19.65
2022-09-15T14:26:50.645Z,19.79
2022-09-15T14:29:55.397Z,19.85
2022-09-15T14:33:02.240Z,19.77
2022-09-15T14:36:13.482Z,19.83
2022-09-15T14:39:20.397Z,19.60
2022-09-15T14:42:30.685Z,19.62
2022-09-15T14:49:12.491Z,19.42
2022-09-15T14:52:27.283Z,19.29
2022-09-15T14:55:52.280Z,19.23
2022-09-15T14:58:56.776Z,19.28
2022-09-15T15:02:27.627Z,19.22
2022-09-15T15:05:34.293Z,19.08
2022-09-15T15:08:43.086Z,19.00
2022-09-15T15:11:45.650Z,18.95
2022-09-15T15:14:48.012Z,19.01
2022-09-15T15:17:54.607Z,18.87
2022-09-15T15:20:57.354Z,18.80
2022-09-15T15:23:59.597Z,18.77
2022-09-15T15:27:33.744Z,18.72
2022-09-15T15:30:44.747Z,18.58
2022-09-15T15:33:57.211Z,18.68
2022-09-15T15:37:04.017Z,18.82
2022-09-15T15:40:15.018Z,18.78
2022-09-15T15:43:23.839Z,18.77
2022-09-15T15:46:45.829Z,18.52
2022-09-15T15:50:11.803Z,18.38
2022-09-15T15:53:10.287Z,18.38
2022-09-15T15:56:13.002Z,18.33
2022-09-15T15:59:16.646Z,18.36
2022-09-15T16:02:19.002Z,18.33
2022-09-15T16:05:22.314Z,18.42
2022-09-15T16:08:33.064Z,18.42
2022-09-15T16:11:35.258Z,18.48
2022-09-15T16:14:37.477Z,18.48
2022-09-15T16:17:44.348Z,18.45
2022-09-15T16:20:49.039Z,18.46
2022-09-15T16:23:51.227Z,18.65
2022-09-15T16:26:53.984Z,18.65
2022-09-15T16:29:56.228Z,18.45
2022-09-15T16:32:58.968Z,18.43
2022-09-15T16:36:07.061Z,18.42
2022-09-15T16:39:09.704Z,18.47
2022-09-15T16:42:12.017Z,18.30
2022-09-15T16:45:25.314Z,18.27
2022-09-15T16:48:27.514Z,18.27
2022-09-15T16:51:31.585Z,18.31
2022-09-15T16:54:34.107Z,18.28
2022-09-15T16:57:36.380Z,18.28
2022-09-15T17:00:39.658Z,18.29
2022-09-15T17:03:43.350Z,18.28
2022-09-15T17:06:46.278Z,18.28
2022-09-15T17:09:49.870Z,18.29
2022-09-15T17:12:52.536Z,18.23
2022-09-15T17:15:55.251Z,18.10
2022-09-15T17:18:57.518Z,18.16
2022-09-15T17:21:59.705Z,18.05
2022-09-15T17:25:01.824Z,17.99
2022-09-15T17:28:04.105Z,17.87
2022-09-15T17:31:14.127Z,17.88
2022-09-15T17:34:16.405Z,17.92
2022-09-15T17:37:18.592Z,18.00
2022-09-15T17:40:21.541Z,17.97
2022-09-15T17:43:25.793Z,17.96
2022-09-15T17:46:28.017Z,17.95
2022-09-15T17:49:30.305Z,17.80
2022-09-15T17:52:32.525Z,17.73
2022-09-15T17:55:34.692Z,17.71
2022-09-15T17:58:36.967Z,17.68
2022-09-15T18:01:39.512Z,17.70
2022-09-15T18:04:41.742Z,17.72
2022-09-15T18:07:44.087Z,17.67
2022-09-15T18:10:46.757Z,17.65
2022-09-15T18:13:48.992Z,17.61
2022-09-15T18:16:51.233Z,17.71
2022-09-15T18:19:53.605Z,17.70
2022-09-15T18:22:56.876Z,17.61
2022-09-15T18:25:59.056Z,17.58
2022-09-15T18:29:02.150Z,17.51
2022-09-15T18:32:04.821Z,17.50
2022-09-15T18:35:09.148Z,17.54
2022-09-15T18:38:12.066Z,17.50
2022-09-15T18:41:14.334Z,17.51
2022-09-15T18:44:16.554Z,17.48
2022-09-15T18:47:18.750Z,17.46
2022-09-15T18:50:23.323Z,17.43
2022-09-15T18:53:25.597Z,17.32
2022-09-15T18:56:28.097Z,17.28
2022-09-15T18:59:30.315Z,17.26
2022-09-15T19:02:32.827Z,17.26
2022-09-15T19:05:35.378Z,17.45
2022-09-15T19:08:37.886Z,17.48
2022-09-15T19:11:40.104Z,17.43
2022-09-15T19:14:46.036Z,17.43
2022-09-15T19:17:48.960Z,17.41
2022-09-15T19:20:51.147Z,17.39
2022-09-15T19:23:57.279Z,17.37
2022-09-15T19:27:05.023Z,17.45
2022-09-15T19:30:10.217Z,17.39
2022-09-15T19:33:12.676Z,17.40
2022-09-15T19:36:28.099Z,17.41
2022-09-15T19:39:31.141Z,17.39
2022-09-15T19:42:33.341Z,17.34
2022-09-15T19:45:35.570Z,17.37
2022-09-15T19:48:40.872Z,17.37
2022-09-15T19:51:46.135Z,17.38
2022-09-15T19:54:48.346Z,17.30
2022-09-15T19:57:50.510Z,17.27
2022-09-15T20:00:57.048Z,17.26
2022-09-15T20:04:01.984Z,17.26
2022-09-15T20:07:04.351Z,17.27
2022-09-15T20:10:06.788Z,17.23
2022-09-15T20:13:08.936Z,17.22
2022-09-15T20:16:16.115Z,17.29
2022-09-15T20:19:18.550Z,17.27
2022-09-15T20:22:20.846Z,17.24
2022-09-15T20:25:26.162Z,17.29
2022-09-15T20:28:29.624Z,17.29
2022-09-15T20:31:34.668Z,17.28
2022-09-15T20:34:36.857Z,17.26
2022-09-15T20:37:39.339Z,17.31
2022-09-15T20:40:41.557Z,17.24
2022-09-15T20:43:44.190Z,17.26
2022-09-15T20:46:48.487Z,17.25
2022-09-15T20:49:50.652Z,17.25
2022-09-15T20:52:53.250Z,17.17
2022-09-15T20:55:55.781Z,17.10
2022-09-15T20:58:59.914Z,17.18
2022-09-15T21:02:04.279Z,17.01
2022-09-15T21:05:06.671Z,17.05
2022-09-15T21:08:11.890Z,17.01
2022-09-15T21:11:14.919Z,17.03
2022-09-15T21:14:17.122Z,17.05
2022-09-15T21:17:19.538Z,17.05
2022-09-15T21:20:21.703Z,17.11
2022-09-15T21:23:25.047Z,17.13
2022-09-15T21:26:32.928Z,17.07
2022-09-15T21:29:35.848Z,17.07
2022-09-15T21:32:38.834Z,17.12
2022-09-15T21:35:42.011Z,17.20
2022-09-15T21:38:44.716Z,17.11
2022-09-15T21:41:46.980Z,16.92
2022-09-15T21:44:49.157Z,16.94
2022-09-15T21:47:51.309Z,16.93
2022-09-15T21:50:54.225Z,16.95
2022-09-15T21:53:58.407Z,17.03
2022-09-15T21:57:00.654Z,16.99
2022-09-15T22:00:04.234Z,16.95
2022-09-15T22:03:06.907Z,17.04
2022-09-15T22:06:12.907Z,16.92
2022-09-15T22:09:16.811Z,16.92
2022-09-15T22:12:18.918Z,16.95
2022-09-15T22:15:21.083Z,16.90
2022-09-15T22:18:23.294Z,16.92
2022-09-15T22:21:27.340Z,16.96
2022-09-15T22:24:29.961Z,16.79
2022-09-15T22:27:32.096Z,16.84
2022-09-15T22:30:34.233Z,16.76
2022-09-15T22:33:37.031Z,16.73
2022-09-15T22:36:39.183Z,16.71
2022-09-15T22:39:58.454Z,16.80
2022-09-15T22:43:01.230Z,16.77
2022-09-15T22:46:03.749Z,16.71
2022-09-15T22:49:06.020Z,16.59
2022-09-15T22:52:08.757Z,16.59
2022-09-15T22:55:10.910Z,16.61
2022-09-15T22:58:13.032Z,16.55
2022-09-15T23:01:23.997Z,16.61
2022-09-15T23:04:26.201Z,16.57
2022-09-15T23:07:28.447Z,16.58
2022-09-15T23:10:31.086Z,16.54
2022-09-15T23:13:34.094Z,16.58
2022-09-15T23:16:36.418Z,16.57
2022-09-15T23:19:38.595Z,16.53
2022-09-15T23:22:40.784Z,16.57
2022-09-15T23:25:43.468Z,16.55
2022-09-15T23:28:45.688Z,16.68
2022-09-15T23:31:47.917Z,16.63
2022-09-15T23:34:50.132Z,16.56
2022-09-15T23:37:52.490Z,16.56
2022-09-15T23:40:54.630Z,16.52
2022-09-15T23:43:59.598Z,16.59
2022-09-15T23:47:01.848Z,16.59
2022-09-15T23:50:04.392Z,16.57
2022-09-15T23:53:06.681Z,16.59
2022-09-15T23:56:08.871Z,16.62
2022-09-15T23:59:11.014Z,16.62
